sensor_id;sensor_type;location;lat;lon;timestamp;P1;durP1;ratioP1;P2;durP2;ratioP2
46429;SDS011;32131;53.454;-6.180;2022-11-20T00:02:09;9.85;;;2.50;;
46429;SDS011;32131;53.454;-6.180;2022-11-20T00:04:37;8.90;;;2.28;;
46429;SDS011;32131;53.454;-6.180;2022-11-20T00:07:05;9.57;;;1.83;;
46429;SDS011;32131;53.454;-6.180;2022-11-20T00:09:35;16.60;;;2.70;;
46429;SDS011;32131;53.454;-6.180;2022-11-20T00:12:03;18.30;;;2.90;;
46429;SDS011;32131;53.454;-6.180;2022-11-20T00:14:32;12.48;;;3.55;;
46429;SDS011;32131;53.454;-6.180;2022-11-20T00:17:00;9.48;;;2.28;;
46429;SDS011;32131;53.454;-6.180;2022-11-20T00:19:28;9.90;;;2.15;;
46429;SDS011;32131;53.454;-6.180;2022-11-20T00:21:56;7.85;;;2.10;;
46429;SDS011;32131;53.454;-6.180;2022-11-20T00:24:25;16.88;;;2.33;;
46429;SDS011;32131;53.454;-6.180;2022-11-20T00:26:54;10.98;;;2.65;;
46429;SDS011;32131;53.454;-6.180;2022-11-20T00:29:22;15.70;;;3.15;;
46429;SDS011;32131;53.454;-6.180;2022-11-20T00:31:50;20.00;;;3.75;;
46429;SDS011;32131;53.454;-6.180;2022-11-20T00:34:19;7.85;;;2.25;;
46429;SDS011;32131;53.454;-6.180;2022-11-20T00:36:47;10.50;;;2.70;;
46429;SDS011;32131;53.454;-6.180;2022-11-20T00:39:15;7.00;;;2.13;;
46429;SDS011;32131;53.454;-6.180;2022-11-20T00:41:44;9.13;;;2.33;;
46429;SDS011;32131;53.454;-6.180;2022-11-20T00:44:13;9.75;;;3.05;;
46429;SDS011;32131;53.454;-6.180;2022-11-20T00:46:41;13.73;;;2.38;;
46429;SDS011;32131;53.454;-6.180;2022-11-20T00:49:12;12.23;;;3.67;;
46429;SDS011;32131;53.454;-6.180;2022-11-20T00:51:40;8.77;;;2.50;;
46429;SDS011;32131;53.454;-6.180;2022-11-20T00:54:08;5.80;;;2.85;;
46429;SDS011;32131;53.454;-6.180;2022-11-20T00:56:36;12.35;;;2.90;;
46429;SDS011;32131;53.454;-6.180;2022-11-20T00:59:05;9.50;;;3.08;;
46429;SDS011;32131;53.454;-6.180;2022-11-20T01:01:35;10.30;;;2.80;;
46429;SDS011;32131;53.454;-6.180;2022-11-20T01:04:05;13.80;;;2.58;;
46429;SDS011;32131;53.454;-6.180;2022-11-20T01:06:34;16.27;;;3.83;;
46429;SDS011;32131;53.454;-6.180;2022-11-20T01:09:04;9.10;;;2.10;;
46429;SDS011;32131;53.454;-6.180;2022-11-20T01:11:34;7.75;;;3.15;;
46429;SDS011;32131;53.454;-6.180;2022-11-20T01:14:05;11.88;;;3.00;;
46429;SDS011;32131;53.454;-6.180;2022-11-20T01:16:36;12.45;;;3.35;;
46429;SDS011;32131;53.454;-6.180;2022-11-20T01:19:06;16.77;;;3.13;;
46429;SDS011;32131;53.454;-6.180;2022-11-20T01:21:43;9.70;;;2.92;;
46429;SDS011;32131;53.454;-6.180;2022-11-20T01:24:13;21.77;;;3.97;;
46429;SDS011;32131;53.454;-6.180;2022-11-20T01:26:44;9.40;;;2.25;;
46429;SDS011;32131;53.454;-6.180;2022-11-20T01:29:15;17.70;;;2.75;;
46429;SDS011;32131;53.454;-6.180;2022-11-20T01:31:51;18.23;;;2.67;;
46429;SDS011;32131;53.454;-6.180;2022-11-20T01:34:20;21.27;;;2.97;;
46429;SDS011;32131;53.454;-6.180;2022-11-20T01:36:50;17.83;;;3.00;;
46429;SDS011;32131;53.454;-6.180;2022-11-20T01:39:20;11.48;;;2.60;;
46429;SDS011;32131;53.454;-6.180;2022-11-20T01:41:50;20.52;;;2.78;;
46429;SDS011;32131;53.454;-6.180;2022-11-20T01:44:45;20.17;;;3.50;;
46429;SDS011;32131;53.454;-6.180;2022-11-20T01:49:50;13.52;;;2.97;;
46429;SDS011;32131;53.454;-6.180;2022-11-20T01:52:22;19.90;;;3.25;;
46429;SDS011;32131;53.454;-6.180;2022-11-20T01:54:54;10.20;;;2.85;;
46429;SDS011;32131;53.454;-6.180;2022-11-20T01:57:28;16.92;;;2.60;;
46429;SDS011;32131;53.454;-6.180;2022-11-20T02:00:00;13.40;;;2.42;;
46429;SDS011;32131;53.454;-6.180;2022-11-20T02:02:32;13.77;;;2.88;;
46429;SDS011;32131;53.454;-6.180;2022-11-20T02:05:03;16.42;;;3.63;;
46429;SDS011;32131;53.454;-6.180;2022-11-20T02:07:39;17.55;;;3.35;;
46429;SDS011;32131;53.454;-6.180;2022-11-20T02:10:08;10.52;;;2.55;;
46429;SDS011;32131;53.454;-6.180;2022-11-20T02:12:36;19.77;;;3.83;;
46429;SDS011;32131;53.454;-6.180;2022-11-20T02:15:22;21.48;;;3.20;;
46429;SDS011;32131;53.454;-6.180;2022-11-20T02:17:57;26.10;;;3.50;;
46429;SDS011;32131;53.454;-6.180;2022-11-20T02:20:25;17.20;;;3.60;;
46429;SDS011;32131;53.454;-6.180;2022-11-20T02:22:55;21.23;;;3.33;;
46429;SDS011;32131;53.454;-6.180;2022-11-20T02:25:29;11.52;;;2.47;;
46429;SDS011;32131;53.454;-6.180;2022-11-20T02:27:59;18.35;;;3.40;;
46429;SDS011;32131;53.454;-6.180;2022-11-20T02:30:28;17.33;;;3.88;;
46429;SDS011;32131;53.454;-6.180;2022-11-20T02:32:57;19.48;;;3.42;;
46429;SDS011;32131;53.454;-6.180;2022-11-20T02:35:39;19.08;;;3.25;;
46429;SDS011;32131;53.454;-6.180;2022-11-20T02:38:13;22.23;;;3.53;;
46429;SDS011;32131;53.454;-6.180;2022-11-20T02:40:43;28.20;;;3.72;;
46429;SDS011;32131;53.454;-6.180;2022-11-20T02:43:15;19.42;;;2.75;;
46429;SDS011;32131;53.454;-6.180;2022-11-20T02:45:44;13.90;;;2.80;;
46429;SDS011;32131;53.454;-6.180;2022-11-20T02:48:12;14.48;;;3.38;;
46429;SDS011;32131;53.454;-6.180;2022-11-20T02:50:40;20.05;;;3.25;;
46429;SDS011;32131;53.454;-6.180;2022-11-20T02:53:09;14.20;;;2.63;;
46429;SDS011;32131;53.454;-6.180;2022-11-20T02:55:37;18.60;;;3.00;;
46429;SDS011;32131;53.454;-6.180;2022-11-20T02:58:06;22.45;;;4.40;;
46429;SDS011;32131;53.454;-6.180;2022-11-20T03:00:34;16.77;;;2.95;;
46429;SDS011;32131;53.454;-6.180;2022-11-20T03:03:03;16.70;;;3.03;;
46429;SDS011;32131;53.454;-6.180;2022-11-20T03:05:31;19.75;;;3.20;;
46429;SDS011;32131;53.454;-6.180;2022-11-20T03:07:59;33.22;;;4.03;;
46429;SDS011;32131;53.454;-6.180;2022-11-20T03:10:27;24.65;;;2.67;;
46429;SDS011;32131;53.454;-6.180;2022-11-20T03:12:56;20.23;;;3.83;;
46429;SDS011;32131;53.454;-6.180;2022-11-20T03:15:25;13.38;;;2.72;;
46429;SDS011;32131;53.454;-6.180;2022-11-20T03:17:54;21.88;;;3.83;;
46429;SDS011;32131;53.454;-6.180;2022-11-20T03:20:23;18.20;;;3.05;;
46429;SDS011;32131;53.454;-6.180;2022-11-20T03:22:53;19.45;;;3.55;;
46429;SDS011;32131;53.454;-6.180;2022-11-20T03:27:50;19.23;;;3.13;;
46429;SDS011;32131;53.454;-6.180;2022-11-20T03:30:19;10.88;;;2.88;;
46429;SDS011;32131;53.454;-6.180;2022-11-20T03:32:54;19.52;;;3.40;;
46429;SDS011;32131;53.454;-6.180;2022-11-20T03:35:22;18.02;;;3.22;;
46429;SDS011;32131;53.454;-6.180;2022-11-20T03:37:51;20.52;;;3.28;;
46429;SDS011;32131;53.454;-6.180;2022-11-20T03:40:19;27.23;;;3.05;;
46429;SDS011;32131;53.454;-6.180;2022-11-20T03:42:47;21.77;;;2.97;;
46429;SDS011;32131;53.454;-6.180;2022-11-20T03:45:16;13.93;;;2.63;;
46429;SDS011;32131;53.454;-6.180;2022-11-20T03:47:46;20.77;;;3.60;;
46429;SDS011;32131;53.454;-6.180;2022-11-20T03:50:15;17.05;;;2.35;;
46429;SDS011;32131;53.454;-6.180;2022-11-20T03:52:46;13.07;;;2.55;;
46429;SDS011;32131;53.454;-6.180;2022-11-20T03:55:15;14.82;;;2.53;;
46429;SDS011;32131;53.454;-6.180;2022-11-20T03:57:43;10.85;;;2.25;;
46429;SDS011;32131;53.454;-6.180;2022-11-20T04:00:12;19.00;;;3.03;;
46429;SDS011;32131;53.454;-6.180;2022-11-20T04:02:42;15.15;;;2.35;;
46429;SDS011;32131;53.454;-6.180;2022-11-20T04:05:10;6.68;;;1.85;;
46429;SDS011;32131;53.454;-6.180;2022-11-20T04:07:42;8.93;;;2.40;;
46429;SDS011;32131;53.454;-6.180;2022-11-20T04:10:10;10.82;;;1.63;;
46429;SDS011;32131;53.454;-6.180;2022-11-20T04:12:38;13.40;;;2.70;;
46429;SDS011;32131;53.454;-6.180;2022-11-20T04:15:07;9.20;;;2.20;;
46429;SDS011;32131;53.454;-6.180;2022-11-20T04:17:36;7.32;;;1.55;;
46429;SDS011;32131;53.454;-6.180;2022-11-20T04:20:04;11.38;;;1.73;;
46429;SDS011;32131;53.454;-6.180;2022-11-20T04:22:34;12.70;;;2.22;;
46429;SDS011;32131;53.454;-6.180;2022-11-20T04:25:04;13.02;;;2.15;;
46429;SDS011;32131;53.454;-6.180;2022-11-20T04:27:32;10.15;;;1.85;;
46429;SDS011;32131;53.454;-6.180;2022-11-20T04:30:01;10.57;;;1.60;;
46429;SDS011;32131;53.454;-6.180;2022-11-20T04:32:29;13.60;;;1.65;;
46429;SDS011;32131;53.454;-6.180;2022-11-20T04:34:57;17.17;;;2.67;;
46429;SDS011;32131;53.454;-6.180;2022-11-20T04:37:25;10.63;;;2.03;;
46429;SDS011;32131;53.454;-6.180;2022-11-20T04:39:53;9.55;;;1.40;;
46429;SDS011;32131;53.454;-6.180;2022-11-20T04:42:23;20.33;;;2.20;;
46429;SDS011;32131;53.454;-6.180;2022-11-20T04:44:57;7.93;;;1.85;;
46429;SDS011;32131;53.454;-6.180;2022-11-20T04:47:25;9.43;;;1.25;;
46429;SDS011;32131;53.454;-6.180;2022-11-20T04:49:53;16.63;;;2.78;;
46429;SDS011;32131;53.454;-6.180;2022-11-20T04:52:21;6.03;;;1.05;;
46429;SDS011;32131;53.454;-6.180;2022-11-20T04:54:49;16.45;;;2.45;;
46429;SDS011;32131;53.454;-6.180;2022-11-20T04:57:19;11.45;;;2.38;;
46429;SDS011;32131;53.454;-6.180;2022-11-20T04:59:49;13.00;;;2.17;;
46429;SDS011;32131;53.454;-6.180;2022-11-20T05:02:17;11.73;;;2.45;;
46429;SDS011;32131;53.454;-6.180;2022-11-20T05:04:45;11.32;;;2.00;;
46429;SDS011;32131;53.454;-6.180;2022-11-20T05:07:14;19.35;;;2.08;;
46429;SDS011;32131;53.454;-6.180;2022-11-20T05:09:43;18.92;;;2.25;;
46429;SDS011;32131;53.454;-6.180;2022-11-20T05:12:11;20.83;;;2.58;;
46429;SDS011;32131;53.454;-6.180;2022-11-20T05:14:39;12.93;;;2.45;;
46429;SDS011;32131;53.454;-6.180;2022-11-20T05:17:11;18.65;;;2.70;;
46429;SDS011;32131;53.454;-6.180;2022-11-20T05:19:39;17.58;;;3.38;;
46429;SDS011;32131;53.454;-6.180;2022-11-20T05:22:07;21.73;;;2.30;;
46429;SDS011;32131;53.454;-6.180;2022-11-20T05:24:36;9.65;;;2.25;;
46429;SDS011;32131;53.454;-6.180;2022-11-20T05:27:04;25.63;;;3.63;;
46429;SDS011;32131;53.454;-6.180;2022-11-20T05:29:32;15.82;;;2.20;;
46429;SDS011;32131;53.454;-6.180;2022-11-20T05:32:00;11.77;;;2.80;;
46429;SDS011;32131;53.454;-6.180;2022-11-20T05:34:30;11.60;;;2.55;;
46429;SDS011;32131;53.454;-6.180;2022-11-20T05:36:58;15.00;;;2.72;;
46429;SDS011;32131;53.454;-6.180;2022-11-20T05:39:26;21.48;;;3.25;;
46429;SDS011;32131;53.454;-6.180;2022-11-20T05:41:55;18.27;;;2.40;;
46429;SDS011;32131;53.454;-6.180;2022-11-20T05:44:37;17.55;;;2.83;;
46429;SDS011;32131;53.454;-6.180;2022-11-20T05:47:05;16.17;;;2.47;;
46429;SDS011;32131;53.454;-6.180;2022-11-20T05:49:35;11.18;;;2.45;;
46429;SDS011;32131;53.454;-6.180;2022-11-20T05:52:03;16.27;;;2.88;;
46429;SDS011;32131;53.454;-6.180;2022-11-20T05:54:32;24.15;;;2.63;;
46429;SDS011;32131;53.454;-6.180;2022-11-20T05:57:00;16.92;;;2.58;;
46429;SDS011;32131;53.454;-6.180;2022-11-20T05:59:28;23.55;;;2.90;;
46429;SDS011;32131;53.454;-6.180;2022-11-20T06:01:57;10.88;;;1.55;;
46429;SDS011;32131;53.454;-6.180;2022-11-20T06:04:25;16.58;;;1.73;;
46429;SDS011;32131;53.454;-6.180;2022-11-20T06:06:55;10.85;;;1.52;;
46429;SDS011;32131;53.454;-6.180;2022-11-20T06:09:23;14.52;;;1.83;;
46429;SDS011;32131;53.454;-6.180;2022-11-20T06:11:51;11.65;;;1.15;;
46429;SDS011;32131;53.454;-6.180;2022-11-20T06:14:19;5.25;;;0.95;;
46429;SDS011;32131;53.454;-6.180;2022-11-20T06:16:48;14.10;;;1.92;;
46429;SDS011;32131;53.454;-6.180;2022-11-20T06:19:16;7.15;;;1.58;;
46429;SDS011;32131;53.454;-6.180;2022-11-20T06:21:45;13.93;;;2.47;;
46429;SDS011;32131;53.454;-6.180;2022-11-20T06:24:16;12.20;;;1.70;;
46429;SDS011;32131;53.454;-6.180;2022-11-20T06:26:45;8.15;;;1.92;;
46429;SDS011;32131;53.454;-6.180;2022-11-20T06:29:13;13.70;;;1.83;;
46429;SDS011;32131;53.454;-6.180;2022-11-20T06:31:41;7.72;;;1.38;;
46429;SDS011;32131;53.454;-6.180;2022-11-20T06:34:10;12.15;;;1.92;;
46429;SDS011;32131;53.454;-6.180;2022-11-20T06:36:38;9.77;;;1.65;;
46429;SDS011;32131;53.454;-6.180;2022-11-20T06:39:06;15.73;;;1.75;;
46429;SDS011;32131;53.454;-6.180;2022-11-20T06:41:36;12.38;;;2.00;;
46429;SDS011;32131;53.454;-6.180;2022-11-20T06:44:04;14.98;;;1.98;;
46429;SDS011;32131;53.454;-6.180;2022-11-20T06:46:32;5.78;;;1.20;;
46429;SDS011;32131;53.454;-6.180;2022-11-20T06:49:02;9.88;;;1.73;;
46429;SDS011;32131;53.454;-6.180;2022-11-20T06:51:30;12.38;;;1.38;;
46429;SDS011;32131;53.454;-6.180;2022-11-20T06:53:58;11.23;;;2.20;;
46429;SDS011;32131;53.454;-6.180;2022-11-20T06:56:27;8.90;;;1.98;;
46429;SDS011;32131;53.454;-6.180;2022-11-20T06:58:57;11.60;;;1.75;;
46429;SDS011;32131;53.454;-6.180;2022-11-20T07:01:25;10.38;;;1.60;;
46429;SDS011;32131;53.454;-6.180;2022-11-20T07:03:53;11.15;;;1.55;;
46429;SDS011;32131;53.454;-6.180;2022-11-20T07:06:22;10.20;;;1.42;;
46429;SDS011;32131;53.454;-6.180;2022-11-20T07:08:50;11.82;;;1.40;;
46429;SDS011;32131;53.454;-6.180;2022-11-20T07:11:18;16.75;;;1.70;;
46429;SDS011;32131;53.454;-6.180;2022-11-20T07:13:47;13.73;;;1.35;;
46429;SDS011;32131;53.454;-6.180;2022-11-20T07:16:16;17.30;;;1.80;;
46429;SDS011;32131;53.454;-6.180;2022-11-20T07:18:45;8.18;;;1.60;;
46429;SDS011;32131;53.454;-6.180;2022-11-20T07:21:16;12.52;;;1.75;;
46429;SDS011;32131;53.454;-6.180;2022-11-20T07:23:44;11.98;;;1.85;;
46429;SDS011;32131;53.454;-6.180;2022-11-20T07:26:13;15.45;;;1.90;;
46429;SDS011;32131;53.454;-6.180;2022-11-20T07:28:43;8.57;;;1.35;;
46429;SDS011;32131;53.454;-6.180;2022-11-20T07:31:13;12.80;;;1.85;;
46429;SDS011;32131;53.454;-6.180;2022-11-20T07:33:46;18.05;;;2.50;;
46429;SDS011;32131;53.454;-6.180;2022-11-20T07:36:14;11.43;;;1.38;;
46429;SDS011;32131;53.454;-6.180;2022-11-20T07:38:43;15.57;;;2.38;;
46429;SDS011;32131;53.454;-6.180;2022-11-20T07:41:11;9.65;;;1.30;;
46429;SDS011;32131;53.454;-6.180;2022-11-20T07:43:40;8.27;;;1.75;;
46429;SDS011;32131;53.454;-6.180;2022-11-20T07:46:08;7.63;;;1.60;;
46429;SDS011;32131;53.454;-6.180;2022-11-20T07:48:36;13.90;;;1.73;;
46429;SDS011;32131;53.454;-6.180;2022-11-20T07:51:06;19.40;;;2.78;;
46429;SDS011;32131;53.454;-6.180;2022-11-20T07:53:34;6.90;;;1.35;;
46429;SDS011;32131;53.454;-6.180;2022-11-20T07:56:02;6.22;;;1.80;;
46429;SDS011;32131;53.454;-6.180;2022-11-20T07:58:31;12.95;;;1.45;;
46429;SDS011;32131;53.454;-6.180;2022-11-20T08:01:04;7.22;;;1.40;;
46429;SDS011;32131;53.454;-6.180;2022-11-20T08:03:33;8.20;;;1.65;;
46429;SDS011;32131;53.454;-6.180;2022-11-20T08:06:05;15.88;;;2.28;;
46429;SDS011;32131;53.454;-6.180;2022-11-20T08:08:35;25.73;;;2.38;;
46429;SDS011;32131;53.454;-6.180;2022-11-20T08:11:08;10.50;;;1.65;;
46429;SDS011;32131;53.454;-6.180;2022-11-20T08:13:53;8.18;;;2.85;;
46429;SDS011;32131;53.454;-6.180;2022-11-20T08:16:39;13.52;;;2.10;;
46429;SDS011;32131;53.454;-6.180;2022-11-20T08:19:08;19.05;;;2.08;;
46429;SDS011;32131;53.454;-6.180;2022-11-20T08:21:38;13.90;;;2.08;;
46429;SDS011;32131;53.454;-6.180;2022-11-20T08:24:07;15.38;;;2.10;;
46429;SDS011;32131;53.454;-6.180;2022-11-20T08:26:36;13.55;;;2.00;;
46429;SDS011;32131;53.454;-6.180;2022-11-20T08:29:05;7.80;;;1.65;;
46429;SDS011;32131;53.454;-6.180;2022-11-20T08:31:34;9.02;;;1.60;;
46429;SDS011;32131;53.454;-6.180;2022-11-20T08:34:02;12.20;;;1.67;;
46429;SDS011;32131;53.454;-6.180;2022-11-20T08:36:34;10.32;;;1.85;;
46429;SDS011;32131;53.454;-6.180;2022-11-20T08:39:04;15.10;;;2.13;;
46429;SDS011;32131;53.454;-6.180;2022-11-20T08:41:32;11.68;;;1.50;;
46429;SDS011;32131;53.454;-6.180;2022-11-20T08:44:01;16.38;;;2.08;;
46429;SDS011;32131;53.454;-6.180;2022-11-20T08:46:32;17.10;;;1.92;;
46429;SDS011;32131;53.454;-6.180;2022-11-20T08:49:02;18.50;;;2.42;;
46429;SDS011;32131;53.454;-6.180;2022-11-20T08:51:31;13.07;;;2.20;;
46429;SDS011;32131;53.454;-6.180;2022-11-20T08:53:59;12.30;;;1.38;;
46429;SDS011;32131;53.454;-6.180;2022-11-20T08:56:29;19.83;;;1.85;;
46429;SDS011;32131;53.454;-6.180;2022-11-20T08:58:58;18.75;;;2.17;;
46429;SDS011;32131;53.454;-6.180;2022-11-20T09:01:46;8.93;;;2.28;;
46429;SDS011;32131;53.454;-6.180;2022-11-20T09:04:15;10.00;;;2.00;;
46429;SDS011;32131;53.454;-6.180;2022-11-20T09:06:43;11.35;;;1.77;;
46429;SDS011;32131;53.454;-6.180;2022-11-20T09:09:11;10.60;;;1.98;;
46429;SDS011;32131;53.454;-6.180;2022-11-20T09:11:41;8.52;;;1.27;;
46429;SDS011;32131;53.454;-6.180;2022-11-20T09:14:09;9.48;;;1.40;;
46429;SDS011;32131;53.454;-6.180;2022-11-20T09:16:38;13.60;;;1.70;;
46429;SDS011;32131;53.454;-6.180;2022-11-20T09:19:06;17.55;;;1.40;;
46429;SDS011;32131;53.454;-6.180;2022-11-20T09:21:56;16.40;;;1.85;;
46429;SDS011;32131;53.454;-6.180;2022-11-20T09:24:44;8.00;;;1.50;;
46429;SDS011;32131;53.454;-6.180;2022-11-20T09:27:14;15.07;;;1.52;;
46429;SDS011;32131;53.454;-6.180;2022-11-20T09:29:42;3.92;;;1.35;;
46429;SDS011;32131;53.454;-6.180;2022-11-20T09:32:10;8.57;;;1.85;;
46429;SDS011;32131;53.454;-6.180;2022-11-20T09:34:38;3.20;;;0.98;;
46429;SDS011;32131;53.454;-6.180;2022-11-20T09:37:06;11.27;;;1.50;;
46429;SDS011;32131;53.454;-6.180;2022-11-20T09:39:34;6.15;;;1.05;;
46429;SDS011;32131;53.454;-6.180;2022-11-20T09:42:09;7.93;;;1.25;;
46429;SDS011;32131;53.454;-6.180;2022-11-20T09:45:02;6.53;;;0.95;;
46429;SDS011;32131;53.454;-6.180;2022-11-20T09:47:44;10.68;;;1.30;;
46429;SDS011;32131;53.454;-6.180;2022-11-20T09:50:32;7.72;;;1.65;;
46429;SDS011;32131;53.454;-6.180;2022-11-20T09:53:08;4.93;;;1.05;;
46429;SDS011;32131;53.454;-6.180;2022-11-20T09:55:42;9.27;;;1.38;;
46429;SDS011;32131;53.454;-6.180;2022-11-20T09:58:15;7.97;;;1.45;;
46429;SDS011;32131;53.454;-6.180;2022-11-20T10:00:50;6.25;;;0.90;;
46429;SDS011;32131;53.454;-6.180;2022-11-20T10:03:26;4.72;;;0.90;;
46429;SDS011;32131;53.454;-6.180;2022-11-20T10:06:04;5.43;;;0.95;;
46429;SDS011;32131;53.454;-6.180;2022-11-20T10:08:38;10.40;;;0.95;;
46429;SDS011;32131;53.454;-6.180;2022-11-20T10:11:11;5.25;;;0.88;;
46429;SDS011;32131;53.454;-6.180;2022-11-20T10:13:48;4.32;;;1.02;;
46429;SDS011;32131;53.454;-6.180;2022-11-20T10:16:26;5.53;;;0.82;;
46429;SDS011;32131;53.454;-6.180;2022-11-20T10:19:11;9.43;;;1.13;;
46429;SDS011;32131;53.454;-6.180;2022-11-20T10:21:53;8.05;;;0.93;;
46429;SDS011;32131;53.454;-6.180;2022-11-20T10:24:44;2.08;;;0.73;;
46429;SDS011;32131;53.454;-6.180;2022-11-20T10:27:30;3.20;;;0.57;;
46429;SDS011;32131;53.454;-6.180;2022-11-20T10:30:09;2.63;;;0.70;;
46429;SDS011;32131;53.454;-6.180;2022-11-20T10:32:40;8.27;;;1.10;;
46429;SDS011;32131;53.454;-6.180;2022-11-20T10:35:16;5.60;;;1.05;;
46429;SDS011;32131;53.454;-6.180;2022-11-20T10:37:49;12.32;;;1.25;;
46429;SDS011;32131;53.454;-6.180;2022-11-20T10:40:22;7.13;;;1.63;;
46429;SDS011;32131;53.454;-6.180;2022-11-20T10:42:57;10.30;;;1.10;;
46429;SDS011;32131;53.454;-6.180;2022-11-20T10:45:38;3.45;;;0.80;;
46429;SDS011;32131;53.454;-6.180;2022-11-20T10:48:13;2.92;;;0.60;;
46429;SDS011;32131;53.454;-6.180;2022-11-20T10:50:47;9.48;;;1.30;;
46429;SDS011;32131;53.454;-6.180;2022-11-20T10:53:28;3.28;;;1.25;;
46429;SDS011;32131;53.454;-6.180;2022-11-20T10:56:16;1.83;;;0.60;;
46429;SDS011;32131;53.454;-6.180;2022-11-20T10:59:02;4.38;;;0.70;;
46429;SDS011;32131;53.454;-6.180;2022-11-20T11:01:40;3.47;;;0.68;;
46429;SDS011;32131;53.454;-6.180;2022-11-20T11:04:15;6.88;;;0.70;;
46429;SDS011;32131;53.454;-6.180;2022-11-20T11:06:57;4.65;;;0.60;;
46429;SDS011;32131;53.454;-6.180;2022-11-20T11:09:34;2.75;;;0.50;;
46429;SDS011;32131;53.454;-6.180;2022-11-20T11:12:07;5.10;;;0.80;;
46429;SDS011;32131;53.454;-6.180;2022-11-20T11:14:46;4.53;;;0.60;;
46429;SDS011;32131;53.454;-6.180;2022-11-20T11:17:27;2.05;;;0.60;;
46429;SDS011;32131;53.454;-6.180;2022-11-20T11:19:57;2.75;;;0.80;;
46429;SDS011;32131;53.454;-6.180;2022-11-20T11:22:31;1.75;;;0.60;;
46429;SDS011;32131;53.454;-6.180;2022-11-20T11:25:00;7.43;;;0.85;;
46429;SDS011;32131;53.454;-6.180;2022-11-20T11:27:29;1.15;;;0.28;;
46429;SDS011;32131;53.454;-6.180;2022-11-20T11:30:11;2.00;;;0.63;;
46429;SDS011;32131;53.454;-6.180;2022-11-20T11:32:43;4.38;;;0.95;;
46429;SDS011;32131;53.454;-6.180;2022-11-20T11:35:19;1.10;;;0.40;;
46429;SDS011;32131;53.454;-6.180;2022-11-20T11:37:49;2.58;;;0.30;;
46429;SDS011;32131;53.454;-6.180;2022-11-20T11:40:20;3.58;;;0.68;;
46429;SDS011;32131;53.454;-6.180;2022-11-20T11:42:54;3.90;;;0.80;;
46429;SDS011;32131;53.454;-6.180;2022-11-20T11:45:25;3.92;;;0.50;;
46429;SDS011;32131;53.454;-6.180;2022-11-20T11:47:54;1.92;;;0.40;;
46429;SDS011;32131;53.454;-6.180;2022-11-20T11:50:25;0.40;;;0.03;;
46429;SDS011;32131;53.454;-6.180;2022-11-20T11:52:56;1.65;;;0.30;;
46429;SDS011;32131;53.454;-6.180;2022-11-20T11:55:33;0.52;;;0.10;;
46429;SDS011;32131;53.454;-6.180;2022-11-20T11:58:08;0.45;;;0.20;;
46429;SDS011;32131;53.454;-6.180;2022-11-20T12:00:51;2.58;;;0.20;;
46429;SDS011;32131;53.454;-6.180;2022-11-20T12:03:27;0.73;;;0.13;;
46429;SDS011;32131;53.454;-6.180;2022-11-20T12:06:03;0.40;;;0.20;;
46429;SDS011;32131;53.454;-6.180;2022-11-20T12:08:38;4.20;;;0.40;;
46429;SDS011;32131;53.454;-6.180;2022-11-20T12:11:13;0.43;;;0.20;;
46429;SDS011;32131;53.454;-6.180;2022-11-20T12:13:48;3.47;;;0.50;;
46429;SDS011;32131;53.454;-6.180;2022-11-20T12:16:21;1.75;;;0.25;;
46429;SDS011;32131;53.454;-6.180;2022-11-20T12:18:53;1.67;;;0.47;;
46429;SDS011;32131;53.454;-6.180;2022-11-20T12:21:25;0.45;;;0.20;;
46429;SDS011;32131;53.454;-6.180;2022-11-20T12:27:02;3.88;;;0.30;;
46429;SDS011;32131;53.454;-6.180;2022-11-20T12:29:57;2.65;;;0.13;;
46429;SDS011;32131;53.454;-6.180;2022-11-20T12:32:39;0.85;;;0.30;;
46429;SDS011;32131;53.454;-6.180;2022-11-20T12:35:37;3.38;;;0.32;;
46429;SDS011;32131;53.454;-6.180;2022-11-20T12:38:29;0.47;;;0.25;;
46429;SDS011;32131;53.454;-6.180;2022-11-20T12:41:09;2.63;;;0.30;;
46429;SDS011;32131;53.454;-6.180;2022-11-20T12:44:07;0.98;;;0.20;;
46429;SDS011;32131;53.454;-6.180;2022-11-20T12:47:04;2.20;;;0.30;;
46429;SDS011;32131;53.454;-6.180;2022-11-20T12:49:41;4.72;;;0.50;;
46429;SDS011;32131;53.454;-6.180;2022-11-20T12:52:22;1.08;;;0.40;;
46429;SDS011;32131;53.454;-6.180;2022-11-20T12:55:09;2.10;;;0.50;;
46429;SDS011;32131;53.454;-6.180;2022-11-20T12:57:54;2.28;;;0.68;;
46429;SDS011;32131;53.454;-6.180;2022-11-20T13:00:25;5.70;;;0.57;;
46429;SDS011;32131;53.454;-6.180;2022-11-20T13:03:00;3.22;;;0.57;;
46429;SDS011;32131;53.454;-6.180;2022-11-20T13:05:41;2.95;;;0.65;;
46429;SDS011;32131;53.454;-6.180;2022-11-20T13:08:21;1.77;;;0.55;;
46429;SDS011;32131;53.454;-6.180;2022-11-20T13:10:54;0.90;;;0.50;;
46429;SDS011;32131;53.454;-6.180;2022-11-20T13:13:30;1.83;;;0.63;;
46429;SDS011;32131;53.454;-6.180;2022-11-20T13:16:05;2.67;;;0.65;;
46429;SDS011;32131;53.454;-6.180;2022-11-20T13:18:40;1.27;;;0.47;;
46429;SDS011;32131;53.454;-6.180;2022-11-20T13:21:15;1.73;;;0.60;;
46429;SDS011;32131;53.454;-6.180;2022-11-20T13:23:48;3.35;;;0.40;;
46429;SDS011;32131;53.454;-6.180;2022-11-20T13:26:18;3.05;;;0.30;;
46429;SDS011;32131;53.454;-6.180;2022-11-20T13:28:59;0.77;;;0.25;;
46429;SDS011;32131;53.454;-6.180;2022-11-20T13:31:31;1.48;;;0.45;;
46429;SDS011;32131;53.454;-6.180;2022-11-20T13:34:02;1.38;;;0.50;;
46429;SDS011;32131;53.454;-6.180;2022-11-20T13:36:47;4.97;;;0.55;;
46429;SDS011;32131;53.454;-6.180;2022-11-20T13:39:25;2.55;;;0.40;;
46429;SDS011;32131;53.454;-6.180;2022-11-20T13:41:55;3.13;;;0.60;;
46429;SDS011;32131;53.454;-6.180;2022-11-20T13:44:25;2.95;;;0.60;;
46429;SDS011;32131;53.454;-6.180;2022-11-20T13:46:57;2.65;;;0.65;;
46429;SDS011;32131;53.454;-6.180;2022-11-20T13:49:26;4.13;;;0.52;;
46429;SDS011;32131;53.454;-6.180;2022-11-20T13:51:59;3.22;;;0.52;;
46429;SDS011;32131;53.454;-6.180;2022-11-20T13:57:46;5.93;;;0.60;;
46429;SDS011;32131;53.454;-6.180;2022-11-20T14:00:26;5.95;;;0.70;;
46429;SDS011;32131;53.454;-6.180;2022-11-20T14:03:08;2.00;;;0.57;;
46429;SDS011;32131;53.454;-6.180;2022-11-20T14:05:45;6.28;;;0.70;;
46429;SDS011;32131;53.454;-6.180;2022-11-20T14:08:24;5.63;;;1.15;;
46429;SDS011;32131;53.454;-6.180;2022-11-20T14:11:12;1.85;;;0.50;;
46429;SDS011;32131;53.454;-6.180;2022-11-20T14:13:55;1.60;;;0.40;;
46429;SDS011;32131;53.454;-6.180;2022-11-20T14:16:26;4.63;;;0.80;;
46429;SDS011;32131;53.454;-6.180;2022-11-20T14:18:55;0.95;;;0.25;;
46429;SDS011;32131;53.454;-6.180;2022-11-20T14:21:25;0.95;;;0.32;;
46429;SDS011;32131;53.454;-6.180;2022-11-20T14:24:03;3.50;;;0.50;;
46429;SDS011;32131;53.454;-6.180;2022-11-20T14:26:33;4.53;;;0.73;;
46429;SDS011;32131;53.454;-6.180;2022-11-20T14:29:01;2.42;;;0.50;;
46429;SDS011;32131;53.454;-6.180;2022-11-20T14:31:29;2.00;;;0.63;;
46429;SDS011;32131;53.454;-6.180;2022-11-20T14:33:58;1.90;;;0.63;;
46429;SDS011;32131;53.454;-6.180;2022-11-20T14:36:26;5.78;;;0.95;;
46429;SDS011;32131;53.454;-6.180;2022-11-20T14:38:55;4.13;;;0.90;;
46429;SDS011;32131;53.454;-6.180;2022-11-20T14:41:28;1.90;;;0.47;;
46429;SDS011;32131;53.454;-6.180;2022-11-20T14:44:00;4.43;;;0.90;;
46429;SDS011;32131;53.454;-6.180;2022-11-20T14:46:29;3.08;;;0.95;;
46429;SDS011;32131;53.454;-6.180;2022-11-20T14:49:00;6.55;;;1.30;;
46429;SDS011;32131;53.454;-6.180;2022-11-20T14:51:31;5.07;;;0.90;;
46429;SDS011;32131;53.454;-6.180;2022-11-20T14:54:10;9.70;;;0.93;;
46429;SDS011;32131;53.454;-6.180;2022-11-20T14:56:41;7.00;;;0.60;;
46429;SDS011;32131;53.454;-6.180;2022-11-20T14:59:10;5.55;;;0.98;;
46429;SDS011;32131;53.454;-6.180;2022-11-20T15:01:38;5.97;;;0.75;;
46429;SDS011;32131;53.454;-6.180;2022-11-20T15:04:08;5.20;;;1.15;;
46429;SDS011;32131;53.454;-6.180;2022-11-20T15:06:48;3.58;;;1.35;;
46429;SDS011;32131;53.454;-6.180;2022-11-20T15:09:17;6.30;;;1.00;;